sensor_id;sensor_type;location;lat;lon;timestamp;P1;P2;P0
77794;PMS5003;66985;45.778;3.090;2023-01-28T00:01:06;13;11;
77794;PMS5003;66985;45.778;3.090;2023-01-28T00:03:32;10;10;
77794;PMS5003;66985;45.778;3.090;2023-01-28T00:06:00;11;11;
77794;PMS5003;66985;45.778;3.090;2023-01-28T00:08:23;14;13;
77794;PMS5003;66985;45.778;3.090;2023-01-28T00:10:49;12;11;
77794;PMS5003;66985;45.778;3.090;2023-01-28T00:13:14;16;15;
77794;PMS5003;66985;45.778;3.090;2023-01-28T00:15:40;19;16;
77794;PMS5003;66985;45.778;3.090;2023-01-28T00:18:05;13;12;
77794;PMS5003;66985;45.778;3.090;2023-01-28T00:20:31;16;15;
77794;PMS5003;66985;45.778;3.090;2023-01-28T00:22:56;15;13;
77794;PMS5003;66985;45.778;3.090;2023-01-28T00:25:22;11;11;
77794;PMS5003;66985;45.778;3.090;2023-01-28T00:27:48;15;14;
77794;PMS5003;66985;45.778;3.090;2023-01-28T00:30:13;13;12;
77794;PMS5003;66985;45.778;3.090;2023-01-28T00:32:38;17;14;
77794;PMS5003;66985;45.778;3.090;2023-01-28T00:35:04;15;11;
77794;PMS5003;66985;45.778;3.090;2023-01-28T00:37:29;15;14;
77794;PMS5003;66985;45.778;3.090;2023-01-28T00:39:55;15;15;
77794;PMS5003;66985;45.778;3.090;2023-01-28T00:42:20;15;13;
77794;PMS5003;66985;45.778;3.090;2023-01-28T00:44:46;11;11;
77794;PMS5003;66985;45.778;3.090;2023-01-28T00:47:11;13;12;
77794;PMS5003;66985;45.778;3.090;2023-01-28T00:49:36;14;12;
77794;PMS5003;66985;45.778;3.090;2023-01-28T00:52:01;14;13;
77794;PMS5003;66985;45.778;3.090;2023-01-28T00:54:27;16;15;
77794;PMS5003;66985;45.778;3.090;2023-01-28T00:56:52;15;15;
77794;PMS5003;66985;45.778;3.090;2023-01-28T00:59:18;13;11;
77794;PMS5003;66985;45.778;3.090;2023-01-28T01:01:43;12;11;
77794;PMS5003;66985;45.778;3.090;2023-01-28T01:04:08;13;13;
77794;PMS5003;66985;45.778;3.090;2023-01-28T01:06:34;12;12;
77794;PMS5003;66985;45.778;3.090;2023-01-28T01:08:59;11;11;
77794;PMS5003;66985;45.778;3.090;2023-01-28T01:11:24;14;13;
77794;PMS5003;66985;45.778;3.090;2023-01-28T01:13:50;10;10;
77794;PMS5003;66985;45.778;3.090;2023-01-28T01:16:15;11;11;
77794;PMS5003;66985;45.778;3.090;2023-01-28T01:18:41;13;12;
77794;PMS5003;66985;45.778;3.090;2023-01-28T01:21:07;14;13;
77794;PMS5003;66985;45.778;3.090;2023-01-28T01:23:32;11;10;
77794;PMS5003;66985;45.778;3.090;2023-01-28T01:25:57;14;12;
77794;PMS5003;66985;45.778;3.090;2023-01-28T01:28:23;13;13;
77794;PMS5003;66985;45.778;3.090;2023-01-28T01:30:49;16;14;
77794;PMS5003;66985;45.778;3.090;2023-01-28T01:33:14;14;11;
77794;PMS5003;66985;45.778;3.090;2023-01-28T01:35:40;12;10;
77794;PMS5003;66985;45.778;3.090;2023-01-28T01:38:05;11;11;
77794;PMS5003;66985;45.778;3.090;2023-01-28T01:40:31;11;9;
77794;PMS5003;66985;45.778;3.090;2023-01-28T01:42:56;10;9;
77794;PMS5003;66985;45.778;3.090;2023-01-28T01:45:22;12;10;
77794;PMS5003;66985;45.778;3.090;2023-01-28T01:47:48;10;10;
77794;PMS5003;66985;45.778;3.090;2023-01-28T01:50:15;11;11;
77794;PMS5003;66985;45.778;3.090;2023-01-28T01:52:39;8;8;
77794;PMS5003;66985;45.778;3.090;2023-01-28T01:55:05;12;10;
77794;PMS5003;66985;45.778;3.090;2023-01-28T01:57:30;8;8;
77794;PMS5003;66985;45.778;3.090;2023-01-28T01:59:55;10;8;
77794;PMS5003;66985;45.778;3.090;2023-01-28T02:02:21;10;10;
77794;PMS5003;66985;45.778;3.090;2023-01-28T02:04:46;13;11;
77794;PMS5003;66985;45.778;3.090;2023-01-28T02:07:12;11;11;
77794;PMS5003;66985;45.778;3.090;2023-01-28T02:09:37;10;9;
77794;PMS5003;66985;45.778;3.090;2023-01-28T02:12:03;10;10;
77794;PMS5003;66985;45.778;3.090;2023-01-28T02:14:28;8;7;
77794;PMS5003;66985;45.778;3.090;2023-01-28T02:16:53;8;8;
77794;PMS5003;66985;45.778;3.090;2023-01-28T02:19:19;9;9;
77794;PMS5003;66985;45.778;3.090;2023-01-28T02:21:49;10;10;
77794;PMS5003;66985;45.778;3.090;2023-01-28T02:24:16;9;9;
77794;PMS5003;66985;45.778;3.090;2023-01-28T02:26:42;8;8;
77794;PMS5003;66985;45.778;3.090;2023-01-28T02:29:01;9;9;
77794;PMS5003;66985;45.778;3.090;2023-01-28T02:31:28;7;7;
77794;PMS5003;66985;45.778;3.090;2023-01-28T02:33:54;9;9;
77794;PMS5003;66985;45.778;3.090;2023-01-28T02:36:20;6;6;
77794;PMS5003;66985;45.778;3.090;2023-01-28T02:38:45;8;7;
77794;PMS5003;66985;45.778;3.090;2023-01-28T02:41:10;9;9;
77794;PMS5003;66985;45.778;3.090;2023-01-28T02:43:34;8;8;
77794;PMS5003;66985;45.778;3.090;2023-01-28T02:46:01;10;9;
77794;PMS5003;66985;45.778;3.090;2023-01-28T02:48:25;8;8;
77794;PMS5003;66985;45.778;3.090;2023-01-28T02:50:52;7;7;
77794;PMS5003;66985;45.778;3.090;2023-01-28T02:53:18;9;8;
77794;PMS5003;66985;45.778;3.090;2023-01-28T02:55:43;7;7;
77794;PMS5003;66985;45.778;3.090;2023-01-28T02:58:09;9;8;
77794;PMS5003;66985;45.778;3.090;2023-01-28T03:00:33;7;7;
77794;PMS5003;66985;45.778;3.090;2023-01-28T03:03:00;5;5;
77794;PMS5003;66985;45.778;3.090;2023-01-28T03:05:25;6;6;
77794;PMS5003;66985;45.778;3.090;2023-01-28T03:07:49;8;8;
77794;PMS5003;66985;45.778;3.090;2023-01-28T03:10:16;9;8;
77794;PMS5003;66985;45.778;3.090;2023-01-28T03:12:41;8;7;
77794;PMS5003;66985;45.778;3.090;2023-01-28T03:15:07;6;6;
77794;PMS5003;66985;45.778;3.090;2023-01-28T03:17:32;8;8;
77794;PMS5003;66985;45.778;3.090;2023-01-28T03:19:57;5;4;
77794;PMS5003;66985;45.778;3.090;2023-01-28T03:22:23;7;7;
77794;PMS5003;66985;45.778;3.090;2023-01-28T03:24:49;7;7;
77794;PMS5003;66985;45.778;3.090;2023-01-28T03:27:16;5;5;
77794;PMS5003;66985;45.778;3.090;2023-01-28T03:29:39;7;7;
77794;PMS5003;66985;45.778;3.090;2023-01-28T03:32:05;3;3;
77794;PMS5003;66985;45.778;3.090;2023-01-28T03:34:30;10;9;
77794;PMS5003;66985;45.778;3.090;2023-01-28T03:36:56;7;7;
77794;PMS5003;66985;45.778;3.090;2023-01-28T03:39:22;7;7;
77794;PMS5003;66985;45.778;3.090;2023-01-28T03:41:54;9;7;
77794;PMS5003;66985;45.778;3.090;2023-01-28T03:44:12;6;6;
77794;PMS5003;66985;45.778;3.090;2023-01-28T03:46:38;5;5;
77794;PMS5003;66985;45.778;3.090;2023-01-28T03:49:03;5;5;
77794;PMS5003;66985;45.778;3.090;2023-01-28T03:51:29;5;5;
77794;PMS5003;66985;45.778;3.090;2023-01-28T03:53:55;5;5;
77794;PMS5003;66985;45.778;3.090;2023-01-28T03:56:20;5;5;
77794;PMS5003;66985;45.778;3.090;2023-01-28T03:58:46;6;6;
77794;PMS5003;66985;45.778;3.090;2023-01-28T04:01:11;6;6;
77794;PMS5003;66985;45.778;3.090;2023-01-28T04:03:37;5;5;
77794;PMS5003;66985;45.778;3.090;2023-01-28T04:06:03;6;6;
77794;PMS5003;66985;45.778;3.090;2023-01-28T04:08:28;5;5;
77794;PMS5003;66985;45.778;3.090;2023-01-28T04:10:53;5;5;
77794;PMS5003;66985;45.778;3.090;2023-01-28T04:13:19;4;4;
77794;PMS5003;66985;45.778;3.090;2023-01-28T04:15:44;5;5;
77794;PMS5003;66985;45.778;3.090;2023-01-28T04:18:10;5;5;
77794;PMS5003;66985;45.778;3.090;2023-01-28T04:20:35;5;5;
77794;PMS5003;66985;45.778;3.090;2023-01-28T04:23:01;6;6;
77794;PMS5003;66985;45.778;3.090;2023-01-28T04:25:26;5;5;
77794;PMS5003;66985;45.778;3.090;2023-01-28T04:27:52;4;4;
77794;PMS5003;66985;45.778;3.090;2023-01-28T04:30:17;6;6;
77794;PMS5003;66985;45.778;3.090;2023-01-28T04:32:45;4;4;
77794;PMS5003;66985;45.778;3.090;2023-01-28T04:35:09;8;7;
77794;PMS5003;66985;45.778;3.090;2023-01-28T04:37:34;4;4;
77794;PMS5003;66985;45.778;3.090;2023-01-28T04:39:59;4;4;
77794;PMS5003;66985;45.778;3.090;2023-01-28T04:42:25;4;4;
77794;PMS5003;66985;45.778;3.090;2023-01-28T04:44:51;4;4;
77794;PMS5003;66985;45.778;3.090;2023-01-28T04:47:16;4;3;
77794;PMS5003;66985;45.778;3.090;2023-01-28T04:49:42;4;4;
77794;PMS5003;66985;45.778;3.090;2023-01-28T04:52:07;4;4;
77794;PMS5003;66985;45.778;3.090;2023-01-28T04:54:33;4;4;
77794;PMS5003;66985;45.778;3.090;2023-01-28T04:56:58;5;5;
77794;PMS5003;66985;45.778;3.090;2023-01-28T04:59:24;5;5;
77794;PMS5003;66985;45.778;3.090;2023-01-28T05:01:49;3;3;
77794;PMS5003;66985;45.778;3.090;2023-01-28T05:04:14;5;5;
77794;PMS5003;66985;45.778;3.090;2023-01-28T05:06:40;5;5;
77794;PMS5003;66985;45.778;3.090;2023-01-28T05:09:06;3;3;
77794;PMS5003;66985;45.778;3.090;2023-01-28T05:11:31;4;4;
77794;PMS5003;66985;45.778;3.090;2023-01-28T05:13:57;4;4;
77794;PMS5003;66985;45.778;3.090;2023-01-28T05:16:22;2;2;
77794;PMS5003;66985;45.778;3.090;2023-01-28T05:18:47;5;4;
77794;PMS5003;66985;45.778;3.090;2023-01-28T05:21:18;4;4;
77794;PMS5003;66985;45.778;3.090;2023-01-28T05:23:39;4;4;
77794;PMS5003;66985;45.778;3.090;2023-01-28T05:26:04;4;3;
77794;PMS5003;66985;45.778;3.090;2023-01-28T05:28:30;4;4;
77794;PMS5003;66985;45.778;3.090;2023-01-28T05:30:55;4;4;
77794;PMS5003;66985;45.778;3.090;2023-01-28T05:33:21;3;3;
77794;PMS5003;66985;45.778;3.090;2023-01-28T05:35:46;3;3;
77794;PMS5003;66985;45.778;3.090;2023-01-28T05:38:12;4;4;
77794;PMS5003;66985;45.778;3.090;2023-01-28T05:40:37;4;4;
77794;PMS5003;66985;45.778;3.090;2023-01-28T05:43:03;6;5;
77794;PMS5003;66985;45.778;3.090;2023-01-28T05:45:28;4;4;
77794;PMS5003;66985;45.778;3.090;2023-01-28T05:47:54;4;4;
77794;PMS5003;66985;45.778;3.090;2023-01-28T05:50:19;4;4;
77794;PMS5003;66985;45.778;3.090;2023-01-28T05:52:45;4;4;
77794;PMS5003;66985;45.778;3.090;2023-01-28T05:55:10;3;3;
77794;PMS5003;66985;45.778;3.090;2023-01-28T05:57:36;3;3;
77794;PMS5003;66985;45.778;3.090;2023-01-28T06:00:01;3;3;
77794;PMS5003;66985;45.778;3.090;2023-01-28T06:02:27;3;3;
77794;PMS5003;66985;45.778;3.090;2023-01-28T06:04:52;3;3;
77794;PMS5003;66985;45.778;3.090;2023-01-28T06:07:18;3;3;
77794;PMS5003;66985;45.778;3.090;2023-01-28T06:09:43;5;3;
77794;PMS5003;66985;45.778;3.090;2023-01-28T06:12:09;5;3;
77794;PMS5003;66985;45.778;3.090;2023-01-28T06:14:34;5;3;
77794;PMS5003;66985;45.778;3.090;2023-01-28T06:17:00;4;4;
77794;PMS5003;66985;45.778;3.090;2023-01-28T06:19:25;4;3;
77794;PMS5003;66985;45.778;3.090;2023-01-28T06:21:51;3;3;
77794;PMS5003;66985;45.778;3.090;2023-01-28T06:24:16;4;3;
77794;PMS5003;66985;45.778;3.090;2023-01-28T06:26:41;3;3;
77794;PMS5003;66985;45.778;3.090;2023-01-28T06:29:07;3;3;
77794;PMS5003;66985;45.778;3.090;2023-01-28T06:31:32;4;4;
77794;PMS5003;66985;45.778;3.090;2023-01-28T06:33:58;3;3;
77794;PMS5003;66985;45.778;3.090;2023-01-28T06:36:23;3;3;
77794;PMS5003;66985;45.778;3.090;2023-01-28T06:38:49;3;3;
77794;PMS5003;66985;45.778;3.090;2023-01-28T06:41:14;3;3;
77794;PMS5003;66985;45.778;3.090;2023-01-28T06:43:40;3;3;
77794;PMS5003;66985;45.778;3.090;2023-01-28T06:46:05;4;4;
77794;PMS5003;66985;45.778;3.090;2023-01-28T06:48:31;4;4;
77794;PMS5003;66985;45.778;3.090;2023-01-28T06:50:56;3;3;
77794;PMS5003;66985;45.778;3.090;2023-01-28T06:53:22;4;4;
77794;PMS5003;66985;45.778;3.090;2023-01-28T06:55:47;3;3;
77794;PMS5003;66985;45.778;3.090;2023-01-28T06:58:13;4;4;
77794;PMS5003;66985;45.778;3.090;2023-01-28T07:00:38;2;2;
77794;PMS5003;66985;45.778;3.090;2023-01-28T07:03:04;3;3;
77794;PMS5003;66985;45.778;3.090;2023-01-28T07:05:29;3;3;
77794;PMS5003;66985;45.778;3.090;2023-01-28T07:07:55;3;2;
77794;PMS5003;66985;45.778;3.090;2023-01-28T07:10:20;4;4;
77794;PMS5003;66985;45.778;3.090;2023-01-28T07:12:46;3;3;
77794;PMS5003;66985;45.778;3.090;2023-01-28T07:15:11;2;2;
77794;PMS5003;66985;45.778;3.090;2023-01-28T07:17:38;4;4;
77794;PMS5003;66985;45.778;3.090;2023-01-28T07:20:03;3;3;
77794;PMS5003;66985;45.778;3.090;2023-01-28T07:22:28;3;3;
77794;PMS5003;66985;45.778;3.090;2023-01-28T07:24:53;3;3;
77794;PMS5003;66985;45.778;3.090;2023-01-28T07:27:19;4;4;
77794;PMS5003;66985;45.778;3.090;2023-01-28T07:29:44;2;2;
77794;PMS5003;66985;45.778;3.090;2023-01-28T07:32:10;4;3;
77794;PMS5003;66985;45.778;3.090;2023-01-28T07:34:35;3;2;
77794;PMS5003;66985;45.778;3.090;2023-01-28T07:37:01;2;2;
77794;PMS5003;66985;45.778;3.090;2023-01-28T07:39:26;4;4;
77794;PMS5003;66985;45.778;3.090;2023-01-28T07:41:51;3;3;
77794;PMS5003;66985;45.778;3.090;2023-01-28T07:44:17;3;3;
77794;PMS5003;66985;45.778;3.090;2023-01-28T07:46:42;1;1;
77794;PMS5003;66985;45.778;3.090;2023-01-28T07:49:08;3;3;
77794;PMS5003;66985;45.778;3.090;2023-01-28T07:51:33;5;3;
77794;PMS5003;66985;45.778;3.090;2023-01-28T07:53:59;4;4;
77794;PMS5003;66985;45.778;3.090;2023-01-28T07:56:24;3;3;
77794;PMS5003;66985;45.778;3.090;2023-01-28T07:58:50;4;4;
77794;PMS5003;66985;45.778;3.090;2023-01-28T08:01:15;4;3;
77794;PMS5003;66985;45.778;3.090;2023-01-28T08:03:41;3;3;
77794;PMS5003;66985;45.778;3.090;2023-01-28T08:06:11;5;4;
77794;PMS5003;66985;45.778;3.090;2023-01-28T08:08:33;6;6;
77794;PMS5003;66985;45.778;3.090;2023-01-28T08:10:58;3;3;
77794;PMS5003;66985;45.778;3.090;2023-01-28T08:13:24;4;3;
77794;PMS5003;66985;45.778;3.090;2023-01-28T08:15:53;3;2;
77794;PMS5003;66985;45.778;3.090;2023-01-28T08:18:15;2;2;
77794;PMS5003;66985;45.778;3.090;2023-01-28T08:20:40;3;1;
77794;PMS5003;66985;45.778;3.090;2023-01-28T08:23:06;2;2;
77794;PMS5003;66985;45.778;3.090;2023-01-28T08:25:32;4;2;
77794;PMS5003;66985;45.778;3.090;2023-01-28T08:27:56;4;4;
77794;PMS5003;66985;45.778;3.090;2023-01-28T08:30:22;4;2;
77794;PMS5003;66985;45.778;3.090;2023-01-28T08:32:47;3;3;
77794;PMS5003;66985;45.778;3.090;2023-01-28T08:35:13;3;2;
77794;PMS5003;66985;45.778;3.090;2023-01-28T08:37:38;3;3;
77794;PMS5003;66985;45.778;3.090;2023-01-28T08:40:04;1;1;
77794;PMS5003;66985;45.778;3.090;2023-01-28T08:42:29;5;3;
77794;PMS5003;66985;45.778;3.090;2023-01-28T08:45:00;4;4;
77794;PMS5003;66985;45.778;3.090;2023-01-28T08:47:20;4;3;
77794;PMS5003;66985;45.778;3.090;2023-01-28T08:49:46;3;3;
77794;PMS5003;66985;45.778;3.090;2023-01-28T08:52:11;3;3;
77794;PMS5003;66985;45.778;3.090;2023-01-28T08:54:37;3;2;
77794;PMS5003;66985;45.778;3.090;2023-01-28T08:57:02;5;5;
77794;PMS5003;66985;45.778;3.090;2023-01-28T08:59:28;4;4;
77794;PMS5003;66985;45.778;3.090;2023-01-28T09:01:53;6;5;
77794;PMS5003;66985;45.778;3.090;2023-01-28T09:04:19;6;4;
77794;PMS5003;66985;45.778;3.090;2023-01-28T09:06:44;3;3;
77794;PMS5003;66985;45.778;3.090;2023-01-28T09:09:10;3;3;
77794;PMS5003;66985;45.778;3.090;2023-01-28T09:11:35;2;2;
77794;PMS5003;66985;45.778;3.090;2023-01-28T09:14:01;6;6;
77794;PMS5003;66985;45.778;3.090;2023-01-28T09:16:26;4;4;
77794;PMS5003;66985;45.778;3.090;2023-01-28T09:18:52;3;3;
77794;PMS5003;66985;45.778;3.090;2023-01-28T09:21:17;4;4;
77794;PMS5003;66985;45.778;3.090;2023-01-28T09:23:42;5;5;
77794;PMS5003;66985;45.778;3.090;2023-01-28T09:26:08;3;3;
77794;PMS5003;66985;45.778;3.090;2023-01-28T09:28:34;3;3;
77794;PMS5003;66985;45.778;3.090;2023-01-28T09:31:00;6;5;
77794;PMS5003;66985;45.778;3.090;2023-01-28T09:33:24;6;5;
77794;PMS5003;66985;45.778;3.090;2023-01-28T09:35:50;5;5;
77794;PMS5003;66985;45.778;3.090;2023-01-28T09:38:16;4;2;
77794;PMS5003;66985;45.778;3.090;2023-01-28T09:40:41;4;4;
77794;PMS5003;66985;45.778;3.090;2023-01-28T09:43:13;4;4;
77794;PMS5003;66985;45.778;3.090;2023-01-28T09:45:33;3;3;
77794;PMS5003;66985;45.778;3.090;2023-01-28T09:47:58;4;4;
77794;PMS5003;66985;45.778;3.090;2023-01-28T09:50:25;4;4;
77794;PMS5003;66985;45.778;3.090;2023-01-28T09:52:49;4;4;
77794;PMS5003;66985;45.778;3.090;2023-01-28T09:55:17;5;5;
77794;PMS5003;66985;45.778;3.090;2023-01-28T09:57:40;3;3;
77794;PMS5003;66985;45.778;3.090;2023-01-28T10:00:11;6;6;
77794;PMS5003;66985;45.778;3.090;2023-01-28T10:02:35;4;4;
77794;PMS5003;66985;45.778;3.090;2023-01-28T10:04:57;6;4;
77794;PMS5003;66985;45.778;3.090;2023-01-28T10:07:26;3;3;
77794;PMS5003;66985;45.778;3.090;2023-01-28T10:09:48;5;5;
77794;PMS5003;66985;45.778;3.090;2023-01-28T10:12:15;5;5;
77794;PMS5003;66985;45.778;3.090;2023-01-28T10:14:42;4;4;
77794;PMS5003;66985;45.778;3.090;2023-01-28T10:17:05;3;3;
77794;PMS5003;66985;45.778;3.090;2023-01-28T10:19:30;3;3;
77794;PMS5003;66985;45.778;3.090;2023-01-28T10:21:55;4;3;
77794;PMS5003;66985;45.778;3.090;2023-01-28T10:24:22;3;3;
77794;PMS5003;66985;45.778;3.090;2023-01-28T10:26:46;5;5;
77794;PMS5003;66985;45.778;3.090;2023-01-28T10:29:12;4;4;
77794;PMS5003;66985;45.778;3.090;2023-01-28T10:31:38;2;2;
77794;PMS5003;66985;45.778;3.090;2023-01-28T10:34:02;4;4;
77794;PMS5003;66985;45.778;3.090;2023-01-28T10:36:28;4;4;
77794;PMS5003;66985;45.778;3.090;2023-01-28T10:38:53;5;5;
77794;PMS5003;66985;45.778;3.090;2023-01-28T10:41:19;3;3;
77794;PMS5003;66985;45.778;3.090;2023-01-28T10:43:44;5;5;
77794;PMS5003;66985;45.778;3.090;2023-01-28T10:46:10;4;4;
77794;PMS5003;66985;45.778;3.090;2023-01-28T10:48:36;3;3;
77794;PMS5003;66985;45.778;3.090;2023-01-28T10:51:01;5;4;
77794;PMS5003;66985;45.778;3.090;2023-01-28T10:53:34;5;5;
77794;PMS5003;66985;45.778;3.090;2023-01-28T10:55:53;4;3;
77794;PMS5003;66985;45.778;3.090;2023-01-28T10:58:17;3;3;
77794;PMS5003;66985;45.778;3.090;2023-01-28T11:00:42;3;3;
77794;PMS5003;66985;45.778;3.090;2023-01-28T11:03:15;7;5;
77794;PMS5003;66985;45.778;3.090;2023-01-28T11:05:33;5;4;
77794;PMS5003;66985;45.778;3.090;2023-01-28T11:08:03;8;5;
77794;PMS5003;66985;45.778;3.090;2023-01-28T11:10:25;7;5;
77794;PMS5003;66985;45.778;3.090;2023-01-28T11:12:54;5;5;
77794;PMS5003;66985;45.778;3.090;2023-01-28T11:15:16;7;6;
77794;PMS5003;66985;45.778;3.090;2023-01-28T11:17:41;7;7;
77794;PMS5003;66985;45.778;3.090;2023-01-28T11:20:09;8;5;
77794;PMS5003;66985;45.778;3.090;2023-01-28T11:22:32;6;5;
77794;PMS5003;66985;45.778;3.090;2023-01-28T11:24:58;7;3;
77794;PMS5003;66985;45.778;3.090;2023-01-28T11:27:24;7;6;
77794;PMS5003;66985;45.778;3.090;2023-01-28T11:29:48;5;5;
77794;PMS5003;66985;45.778;3.090;2023-01-28T11:32:17;8;5;
77794;PMS5003;66985;45.778;3.090;2023-01-28T11:34:39;6;5;
77794;PMS5003;66985;45.778;3.090;2023-01-28T11:37:11;8;7;
77794;PMS5003;66985;45.778;3.090;2023-01-28T11:39:31;5;4;
77794;PMS5003;66985;45.778;3.090;2023-01-28T11:42:02;6;5;
77794;PMS5003;66985;45.778;3.090;2023-01-28T11:44:21;13;9;
77794;PMS5003;66985;45.778;3.090;2023-01-28T11:46:49;8;6;
77794;PMS5003;66985;45.778;3.090;2023-01-28T11:49:13;7;7;
77794;PMS5003;66985;45.778;3.090;2023-01-28T11:51:39;8;7;
77794;PMS5003;66985;45.778;3.090;2023-01-28T11:54:05;6;6;
77794;PMS5003;66985;45.778;3.090;2023-01-28T11:56:35;8;8;
77794;PMS5003;66985;45.778;3.090;2023-01-28T11:58:55;9;8;
77794;PMS5003;66985;45.778;3.090;2023-01-28T12:01:20;8;6;
77794;PMS5003;66985;45.778;3.090;2023-01-28T12:04:08;8;8;
77794;PMS5003;66985;45.778;3.090;2023-01-28T12:06:13;8;8;
77794;PMS5003;66985;45.778;3.090;2023-01-28T12:08:37;7;6;
77794;PMS5003;66985;45.778;3.090;2023-01-28T12:11:05;5;5;
77794;PMS5003;66985;45.778;3.090;2023-01-28T12:13:30;7;7;
77794;PMS5003;66985;45.778;3.090;2023-01-28T12:15:56;10;8;
77794;PMS5003;66985;45.778;3.090;2023-01-28T12:18:21;5;5;
77794;PMS5003;66985;45.778;3.090;2023-01-28T12:20:45;8;7;
77794;PMS5003;66985;45.778;3.090;2023-01-28T12:23:12;10;6;
77794;PMS5003;66985;45.778;3.090;2023-01-28T12:25:38;9;8;
77794;PMS5003;66985;45.778;3.090;2023-01-28T12:28:01;9;8;
77794;PMS5003;66985;45.778;3.090;2023-01-28T12:30:28;9;9;
77794;PMS5003;66985;45.778;3.090;2023-01-28T12:32:57;8;8;
77794;PMS5003;66985;45.778;3.090;2023-01-28T12:35:20;7;6;
77794;PMS5003;66985;45.778;3.090;2023-01-28T12:37:46;8;8;
77794;PMS5003;66985;45.778;3.090;2023-01-28T12:40:11;7;7;
77794;PMS5003;66985;45.778;3.090;2023-01-28T12:42:34;5;5;
77794;PMS5003;66985;45.778;3.090;2023-01-28T12:44:59;6;5;
77794;PMS5003;66985;45.778;3.090;2023-01-28T12:47:25;7;6;
77794;PMS5003;66985;45.778;3.090;2023-01-28T12:49:49;5;5;
77794;PMS5003;66985;45.778;3.090;2023-01-28T12:52:14;8;8;
77794;PMS5003;66985;45.778;3.090;2023-01-28T12:54:40;7;7;
77794;PMS5003;66985;45.778;3.090;2023-01-28T12:57:05;9;7;
77794;PMS5003;66985;45.778;3.090;2023-01-28T12:59:31;5;5;
77794;PMS5003;66985;45.778;3.090;2023-01-28T13:01:59;8;6;
77794;PMS5003;66985;45.778;3.090;2023-01-28T13:04:24;7;7;
77794;PMS5003;66985;45.778;3.090;2023-01-28T13:06:48;6;6;
77794;PMS5003;66985;45.778;3.090;2023-01-28T13:09:14;6;6;
77794;PMS5003;66985;45.778;3.090;2023-01-28T13:11:38;9;7;
77794;PMS5003;66985;45.778;3.090;2023-01-28T13:14:04;7;7;
77794;PMS5003;66985;45.778;3.090;2023-01-28T13:16:29;7;7;
77794;PMS5003;66985;45.778;3.090;2023-01-28T13:19:03;7;6;
77794;PMS5003;66985;45.778;3.090;2023-01-28T13:21:28;8;6;
77794;PMS5003;66985;45.778;3.090;2023-01-28T13:23:46;8;6;
77794;PMS5003;66985;45.778;3.090;2023-01-28T13:26:27;5;5;
77794;PMS5003;66985;45.778;3.090;2023-01-28T13:28:36;5;5;
77794;PMS5003;66985;45.778;3.090;2023-01-28T13:31:03;8;6;
77794;PMS5003;66985;45.778;3.090;2023-01-28T13:33:29;5;5;
77794;PMS5003;66985;45.778;3.090;2023-01-28T13:35:53;6;6;
77794;PMS5003;66985;45.778;3.090;2023-01-28T13:38:18;6;6;
77794;PMS5003;66985;45.778;3.090;2023-01-28T13:40:51;6;6;
77794;PMS5003;66985;45.778;3.090;2023-01-28T13:43:26;6;6;
77794;PMS5003;66985;45.778;3.090;2023-01-28T13:45:34;8;7;
77794;PMS5003;66985;45.778;3.090;2023-01-28T13:48:02;4;4;
77794;PMS5003;66985;45.778;3.090;2023-01-28T13:50:31;5;5;
77794;PMS5003;66985;45.778;3.090;2023-01-28T13:52:54;9;8;
77794;PMS5003;66985;45.778;3.090;2023-01-28T13:55:17;10;7;
77794;PMS5003;66985;45.778;3.090;2023-01-28T13:57:56;10;9;
77794;PMS5003;66985;45.778;3.090;2023-01-28T14:00:08;6;6;
77794;PMS5003;66985;45.778;3.090;2023-01-28T14:02:35;4;4;
77794;PMS5003;66985;45.778;3.090;2023-01-28T14:05:05;5;5;
77794;PMS5003;66985;45.778;3.090;2023-01-28T14:07:29;8;8;
77794;PMS5003;66985;45.778;3.090;2023-01-28T14:09:54;4;4;
77794;PMS5003;66985;45.778;3.090;2023-01-28T14:12:19;7;5;
77794;PMS5003;66985;45.778;3.090;2023-01-28T14:14:43;5;5;
77794;PMS5003;66985;45.778;3.090;2023-01-28T14:17:06;5;5;
77794;PMS5003;66985;45.778;3.090;2023-01-28T14:19:32;8;7;
77794;PMS5003;66985;45.778;3.090;2023-01-28T14:21:57;4;4;
77794;PMS5003;66985;45.778;3.090;2023-01-28T14:24:22;4;4;
77794;PMS5003;66985;45.778;3.090;2023-01-28T14:26:50;9;7;
77794;PMS5003;66985;45.778;3.090;2023-01-28T14:29:16;9;6;
77794;PMS5003;66985;45.778;3.090;2023-01-28T14:31:39;8;6;
77794;PMS5003;66985;45.778;3.090;2023-01-28T14:34:05;6;6;
77794;PMS5003;66985;45.778;3.090;2023-01-28T14:36:30;7;6;
77794;PMS5003;66985;45.778;3.090;2023-01-28T14:38:55;6;6;
77794;PMS5003;66985;45.778;3.090;2023-01-28T14:41:22;7;6;
77794;PMS5003;66985;45.778;3.090;2023-01-28T14:43:46;9;7;
77794;PMS5003;66985;45.778;3.090;2023-01-28T14:46:15;6;6;
77794;PMS5003;66985;45.778;3.090;2023-01-28T14:48:37;8;7;
77794;PMS5003;66985;45.778;3.090;2023-01-28T14:51:10;5;5;
77794;PMS5003;66985;45.778;3.090;2023-01-28T14:53:31;7;6;
77794;PMS5003;66985;45.778;3.090;2023-01-28T14:55:55;5;5;
77794;PMS5003;66985;45.778;3.090;2023-01-28T14:58:20;6;6;
77794;PMS5003;66985;45.778;3.090;2023-01-28T15:00:52;9;7;
77794;PMS5003;66985;45.778;3.090;2023-01-28T15:03:14;6;6;
77794;PMS5003;66985;45.778;3.090;2023-01-28T15:05:35;7;6;
77794;PMS5003;66985;45.778;3.090;2023-01-28T15:08:01;5;5;
77794;PMS5003;66985;45.778;3.090;2023-01-28T15:10:27;4;4;
77794;PMS5003;66985;45.778;3.090;2023-01-28T15:12:52;3;3;
77794;PMS5003;66985;45.778;3.090;2023-01-28T15:15:19;6;6;
77794;PMS5003;66985;45.778;3.090;2023-01-28T15:17:43;6;5;
77794;PMS5003;66985;45.778;3.090;2023-01-28T15:20:14;7;6;
77794;PMS5003;66985;45.778;3.090;2023-01-28T15:22:34;6;6;
77794;PMS5003;66985;45.778;3.090;2023-01-28T15:24:59;6;6;
77794;PMS5003;66985;45.778;3.090;2023-01-28T15:27:26;4;4;
77794;PMS5003;66985;45.778;3.090;2023-01-28T15:29:51;8;7;
77794;PMS5003;66985;45.778;3.090;2023-01-28T15:32:17;6;6;
77794;PMS5003;66985;45.778;3.090;2023-01-28T15:34:44;7;7;
77794;PMS5003;66985;45.778;3.090;2023-01-28T15:37:08;6;5;
77794;PMS5003;66985;45.778;3.090;2023-01-28T15:39:33;7;7;
77794;PMS5003;66985;45.778;3.090;2023-01-28T15:41:58;7;5;
77794;PMS5003;66985;45.778;3.090;2023-01-28T15:44:25;7;5;
77794;PMS5003;66985;45.778;3.090;2023-01-28T15:46:49;6;6;
77794;PMS5003;66985;45.778;3.090;2023-01-28T15:49:14;6;6;
77794;PMS5003;66985;45.778;3.090;2023-01-28T15:51:40;7;7;
77794;PMS5003;66985;45.778;3.090;2023-01-28T15:54:05;8;5;
77794;PMS5003;66985;45.778;3.090;2023-01-28T15:56:31;8;6;
77794;PMS5003;66985;45.778;3.090;2023-01-28T15:59:06;7;7;
77794;PMS5003;66985;45.778;3.090;2023-01-28T16:01:22;4;4;
77794;PMS5003;66985;45.778;3.090;2023-01-28T16:03:58;9;6;
77794;PMS5003;66985;45.778;3.090;2023-01-28T16:06:13;5;5;
77794;PMS5003;66985;45.778;3.090;2023-01-28T16:08:39;5;5;
77794;PMS5003;66985;45.778;3.090;2023-01-28T16:11:04;4;4;
77794;PMS5003;66985;45.778;3.090;2023-01-28T16:13:30;6;6;
77794;PMS5003;66985;45.778;3.090;2023-01-28T16:15:55;8;6;
77794;PMS5003;66985;45.778;3.090;2023-01-28T16:18:22;8;7;
77794;PMS5003;66985;45.778;3.090;2023-01-28T16:20:46;5;4;
77794;PMS5003;66985;45.778;3.090;2023-01-28T16:23:12;7;5;
77794;PMS5003;66985;45.778;3.090;2023-01-28T16:25:37;6;4;
77794;PMS5003;66985;45.778;3.090;2023-01-28T16:28:04;6;5;
77794;PMS5003;66985;45.778;3.090;2023-01-28T16:30:28;5;5;
77794;PMS5003;66985;45.778;3.090;2023-01-28T16:32:53;5;5;